Cape Kestrel — D5MF7 — position and weather

sailwx.info

Track history (hours):
 
Tides and Currents Weather Stations Pressure Air Temp Water Temp Dewpoint Dewpoint Depression Visibility Wind Speed Wind Dir Waves Ship Positions

Cape Kestrel

Last reported at 2017-Nov-17 08:24 UTC. Time now 2017-Nov-21 19:27 UTC.
Position N 36°36' E 014°40'.

Length 292 m; draft 17.7 m.

Type: Cargo ship. MMSI: 636092736.

Date/timePositionNaut miles runAvg speedWind from/ knotsBaromVisibWave heightAir tempDewpointWater temp
2017-Nov-17 08:24N 36°36' E 014°40'512.1
2017-Nov-17 08:01N 36°37' E 014°35'713.0
2017-Nov-17 07:30N 36°38' E 014°27'612.5
2017-Nov-17 07:00N 36°39' E 014°19'612.0
2017-Nov-17 06:30N 36°40' E 014°12'611.9
2017-Nov-17 06:00N 36°42' E 014°04'611.9
2017-Nov-17 05:30N 36°43' E 013°57'611.9
2017-Nov-17 05:01N 36°44' E 013°50'611.8
2017-Nov-17 04:31N 36°45' E 013°43'611.7
2017-Nov-17 04:00N 36°46' E 013°35'  
2017-Nov-12 15:27N 32°58' W 009°55'2610.7
2017-Nov-12 13:00N 32°40' W 010°18'12610.6
2017-Nov-12 01:07N 31°17' W 012°10'2 9.3
2017-Nov-12 00:55N 31°16' W 012°11'5 9.1
2017-Nov-12 00:23N 31°13' W 012°16'28 9.5
2017-Nov-11 21:29N 30°54' W 012°40'4 9.4
2017-Nov-11 21:00N 30°51' W 012°44'5 9.8
2017-Nov-11 20:30N 30°48' W 012°48'4510.1
2017-Nov-11 16:01N 30°18' W 013°27'010.0
2017-Nov-11 15:59N 30°18' W 013°28'5 9.6
2017-Nov-11 15:30N 30°15' W 013°32'5 9.5
2017-Nov-11 15:00N 30°12' W 013°36'12 9.3
2017-Nov-11 13:42N 30°03' W 013°46'5 9.5
2017-Nov-11 13:10N 30°00' W 013°51'1 9.3
2017-Nov-11 13:00N 29°59' W 013°52'5 9.3
2017-Nov-11 12:30N 29°56' W 013°56'11 9.3
2017-Nov-11 11:19N 29°49' W 014°05'3 9.1
2017-Nov-11 10:57N 29°46' W 014°08'4 9.0
2017-Nov-11 10:29N 29°44' W 014°12'6 8.9
2017-Nov-11 09:50N 29°40' W 014°17'3 8.9
2017-Nov-11 09:30N 29°38' W 014°19'4 9.1
2017-Nov-11 09:00N 29°35' W 014°23'5 9.9
2017-Nov-11 08:30N 29°31' W 014°27'5 9.5
2017-Nov-11 08:00N 29°28' W 014°31'4 8.8
2017-Nov-11 07:30N 29°25' W 014°35'4 8.7
2017-Nov-11 07:00N 29°23' W 014°39'4 8.7
2017-Nov-11 06:30N 29°20' W 014°43'4 8.7
2017-Nov-11 06:00N 29°17' W 014°46'4 8.4
2017-Nov-11 05:30N 29°14' W 014°50'4 8.2
2017-Nov-11 05:00N 29°11' W 014°54'4 8.5
2017-Nov-11 04:30N 29°09' W 014°57'4 8.4
2017-Nov-11 04:00N 29°06' W 015°01'5 8.3
2017-Nov-11 03:26N 29°03' W 015°05'4 8.3
2017-Nov-11 03:00N 29°00' W 015°08'4 8.5
2017-Nov-11 02:30N 28°58' W 015°12'4 8.5
2017-Nov-11 02:00N 28°55' W 015°15'4 8.3
2017-Nov-11 01:30N 28°52' W 015°19'4 8.3
2017-Nov-11 01:00N 28°49' W 015°22'4 8.4
2017-Nov-11 00:30N 28°46' W 015°26'4 8.3
2017-Nov-11 00:00N 28°44' W 015°29'4 8.2
2017-Nov-10 23:30N 28°41' W 015°33'4 8.4
2017-Nov-10 23:00N 28°38' W 015°36'4 8.4
2017-Nov-10 22:30N 28°35' W 015°40'4 8.4
2017-Nov-10 22:00N 28°32' W 015°43'4 8.4
2017-Nov-10 21:30N 28°29' W 015°46'4 8.4
2017-Nov-10 21:00N 28°26' W 015°49'4 8.6
2017-Nov-10 20:30N 28°22' W 015°53'4 8.5
2017-Nov-10 20:00N 28°19' W 015°56'  
Track history (hours):
 
Tides and Currents Weather Stations Pressure Air Temp Water Temp Dewpoint Dewpoint Depression Visibility Wind Speed Wind Dir Waves Ship Positions

Cape Kestrel

Last reported at 2017-Nov-17 08:24 UTC. Time now 2017-Nov-21 19:27 UTC.
Position N 36°36' E 014°40'.

Length 292 m; draft 17.7 m.

Type: Cargo ship. MMSI: 636092736.

Date/timePositionNaut miles runAvg speedWind from/ knotsBaromVisibWave heightAir tempDewpointWater temp
2017-Nov-17 08:24N 36°36' E 014°40'512.1
2017-Nov-17 08:01N 36°37' E 014°35'713.0
2017-Nov-17 07:30N 36°38' E 014°27'612.5
2017-Nov-17 07:00N 36°39' E 014°19'612.0
2017-Nov-17 06:30N 36°40' E 014°12'611.9
2017-Nov-17 06:00N 36°42' E 014°04'611.9
2017-Nov-17 05:30N 36°43' E 013°57'611.9
2017-Nov-17 05:01N 36°44' E 013°50'611.8
2017-Nov-17 04:31N 36°45' E 013°43'611.7
2017-Nov-17 04:00N 36°46' E 013°35'  
2017-Nov-12 15:27N 32°58' W 009°55'2610.7
2017-Nov-12 13:00N 32°40' W 010°18'12610.6
2017-Nov-12 01:07N 31°17' W 012°10'2 9.3
2017-Nov-12 00:55N 31°16' W 012°11'5 9.1
2017-Nov-12 00:23N 31°13' W 012°16'28 9.5
2017-Nov-11 21:29N 30°54' W 012°40'4 9.4
2017-Nov-11 21:00N 30°51' W 012°44'5 9.8
2017-Nov-11 20:30N 30°48' W 012°48'4510.1
2017-Nov-11 16:01N 30°18' W 013°27'010.0
2017-Nov-11 15:59N 30°18' W 013°28'5 9.6
2017-Nov-11 15:30N 30°15' W 013°32'5 9.5
2017-Nov-11 15:00N 30°12' W 013°36'12 9.3
2017-Nov-11 13:42N 30°03' W 013°46'5 9.5
2017-Nov-11 13:10N 30°00' W 013°51'1 9.3
2017-Nov-11 13:00N 29°59' W 013°52'5 9.3
2017-Nov-11 12:30N 29°56' W 013°56'11 9.3
2017-Nov-11 11:19N 29°49' W 014°05'3 9.1
2017-Nov-11 10:57N 29°46' W 014°08'4 9.0
2017-Nov-11 10:29N 29°44' W 014°12'6 8.9
2017-Nov-11 09:50N 29°40' W 014°17'3 8.9
2017-Nov-11 09:30N 29°38' W 014°19'4 9.1
2017-Nov-11 09:00N 29°35' W 014°23'5 9.9
2017-Nov-11 08:30N 29°31' W 014°27'5 9.5
2017-Nov-11 08:00N 29°28' W 014°31'4 8.8
2017-Nov-11 07:30N 29°25' W 014°35'4 8.7
2017-Nov-11 07:00N 29°23' W 014°39'4 8.7
2017-Nov-11 06:30N 29°20' W 014°43'4 8.7
2017-Nov-11 06:00N 29°17' W 014°46'4 8.4
2017-Nov-11 05:30N 29°14' W 014°50'4 8.2
2017-Nov-11 05:00N 29°11' W 014°54'4 8.5
2017-Nov-11 04:30N 29°09' W 014°57'4 8.4
2017-Nov-11 04:00N 29°06' W 015°01'5 8.3
2017-Nov-11 03:26N 29°03' W 015°05'4 8.3
2017-Nov-11 03:00N 29°00' W 015°08'4 8.5
2017-Nov-11 02:30N 28°58' W 015°12'4 8.5
2017-Nov-11 02:00N 28°55' W 015°15'4 8.3
2017-Nov-11 01:30N 28°52' W 015°19'4 8.3
2017-Nov-11 01:00N 28°49' W 015°22'4 8.4
2017-Nov-11 00:30N 28°46' W 015°26'4 8.3
2017-Nov-11 00:00N 28°44' W 015°29'4 8.2
2017-Nov-10 23:30N 28°41' W 015°33'4 8.4
2017-Nov-10 23:00N 28°38' W 015°36'4 8.4
2017-Nov-10 22:30N 28°35' W 015°40'4 8.4
2017-Nov-10 22:00N 28°32' W 015°43'4 8.4
2017-Nov-10 21:30N 28°29' W 015°46'4 8.4
2017-Nov-10 21:00N 28°26' W 015°49'4 8.6
2017-Nov-10 20:30N 28°22' W 015°53'4 8.5
2017-Nov-10 20:00N 28°19' W 015°56'  

Dump ship's entire track history